Macomb, Missouri
Current Conditions -  °F | °C
As of 11:53 AM on Tuesday 21 Oct 2014 (Local Time) from KUNO Reporting Station
Clear Clear  
Wind Chill: 68°   Ceiling: Unl
Heat Index: 68°   Visibility: 10mi
Dew Point: 45°   Wind: 0mph
Humidity: 43%   Direction: NA
Pressure: 30.15"   Gusts: NA
Location:  37.09°N, 92.49°W
Report Text: KUNO 211653Z AUTO 00000KT 10SM CLR 20/07 A3015 RMK AO2 SLP204 T02000072
Loading
Personal Weather Stations






























Interactive Weather Map
Tropical Storm Tracking
New forecast layout! Learn more

10-Day Weather Forecast

Advertisements
Track Severe Weather on mobile